Overview Statistics Trail Chart Weather Telemetry Raw packets
 

This is the latest recevied weather packets stored in our database for station/object DN9CHO-13. If no packets are shown the sender has not sent any weather packets the latest 10 day(s).

<< 43 44 45 46 47 48 49 >>
Time Temp. Humidity Pressure Rain* Wind** Luminosity Snow
1787920233 19.44° C 89% 1011.7 hPa 1.52 mm - 26 W/m² -
1787919629 20.56° C 89% 1011.3 hPa 0.25 mm - 18 W/m² -
1787919025 20.56° C 84% 1011.6 hPa 0.51 mm - 18 W/m² -
1787918422 21.11° C 85% 1011.6 hPa 0.76 mm - 13 W/m² -
1787917818 21.67° C 86% 1011.5 hPa 0.76 mm - 31 W/m² -
1787917234 21.11° C 93% 1011.4 hPa 0.76 mm - 37 W/m² -
1787916631 21.11° C 93% 1011.4 hPa 0.76 mm - 31 W/m² -
1787916027 20° C 95% 1011.4 hPa 0.76 mm - 120 W/m² -
1787915423 20.56° C 95% 1011.1 hPa 0.51 mm - 14 W/m² -
1787914820 20.56° C 93% 1010.8 hPa 0 mm - 6 W/m² -
1787914216 20.56° C 93% 1011.4 hPa 0 mm - 14 W/m² -
1787913633 20.56° C 94% 1011.4 hPa 0 mm - 10 W/m² -
1787913029 20.56° C 95% 1011.4 hPa 0 mm - 20 W/m² -
1787912425 20° C 95% 1011.3 hPa 0 mm - 12 W/m² -
1787911821 20° C 95% 1011.8 hPa 0 mm - 6 W/m² -
1787911218 20° C 96% 1011.6 hPa 0 mm - 8 W/m² -
1787910634 20° C 95% 1011.1 hPa 0 mm - 14 W/m² -
1787910030 20° C 95% 1011.2 hPa 0 mm - 9 W/m² -
1787909426 20° C 94% 1011.5 hPa 0 mm - 6 W/m² -
1787908823 20° C 95% 1011.5 hPa 0.25 mm - 9 W/m² -
1787908219 19.44° C 96% 1011.4 hPa 0.25 mm - 7 W/m² -
1787907615 19.44° C 98% 1011.3 hPa 0.51 mm - 15 W/m² -
1787907032 19.44° C 97% 1011.3 hPa 0.51 mm - 8 W/m² -
1787906428 19.44° C 96% 1011.1 hPa 0.51 mm - 8 W/m² -
1787905825 19.44° C 97% 1011.3 hPa 0.51 mm - 3 W/m² -

* Rain latest hour (hover to see other rain measurements)
** Current wind speed in m/s (hover to see current wind gust speed)